Terminal Aerodrome Forecast
Issued by NWS Riverton, WY

Home | Current Version | Previous Version | Text Only | Print | Product List | Glossary On
Versions: 1 2 3 4 5 6 7 8 9 10 11 12 13 14 15 16
287
FTUS45 KRIW 261136
TAFRIW
TAF
KRIW 261136Z 2612/2712 07006KT P6SM BKN060
     FM261500 VRB08KT P6SM VCTS SCT030CB OVC050
     FM261900 02011KT 5SM -SHRA VCTS BKN030CB
     FM270000 03010KT P6SM VCSH SCT020 OVC035
     FM270700 34008KT P6SM SCT035 BKN060=

USA.gov is the U.S. government's official web portal to all federal, state and local government web resources and services.